Time;durP1;ratioP1;P1;durP2;ratioP2;P2;SDS_P1;SDS_P2;PMS_P1;PMS_P2;Temp;Humidity;BMP_temperature;BMP_pressure;BME280_temperature;BME280_humidity;BME280_pressure;Samples;Min_cycle;Max_cycle;Signal;HPM_P1;HPM_P2
2023/06/08 00:00:12;;;;;;;19.70;8.70;;;;;;;14.48;66.85;102092.34;7397824;19;20021;-45
2023/06/08 00:02:39;;;;;;;20.30;9.48;;;;;;;14.42;67.06;102098.91;7396667;19;20018;-47
2023/06/08 00:05:09;;;;;;;18.33;9.68;;;;;;;14.45;66.97;102095.19;7394739;19;20035;-45
2023/06/08 00:07:36;;;;;;;14.73;9.18;;;;;;;14.46;66.88;102088.91;7397332;19;20034;-51
2023/06/08 00:10:04;;;;;;;16.27;9.45;;;;;;;14.39;67.07;102093.81;7397607;19;20026;-49
2023/06/08 00:12:33;;;;;;;16.70;9.40;;;;;;;14.44;66.88;102086.34;7396706;19;20038;-47
2023/06/08 00:15:00;;;;;;;16.55;8.88;;;;;;;14.44;66.92;102085.50;7395060;19;20014;-52
2023/06/08 00:17:28;;;;;;;18.52;9.27;;;;;;;14.40;66.95;102090.19;7396032;19;20039;-51
2023/06/08 00:19:56;;;;;;;18.83;9.40;;;;;;;14.38;67.28;102094.75;7397397;19;20018;-49
2023/06/08 00:22:24;;;;;;;17.75;9.98;;;;;;;14.42;67.12;102100.72;7394175;19;20348;-50
2023/06/08 00:24:51;;;;;;;17.50;9.55;;;;;;;14.45;66.74;102095.19;7395504;19;20072;-48
2023/06/08 00:27:18;;;;;;;18.30;9.48;;;;;;;14.48;66.74;102092.34;7395089;19;20022;-51
2023/06/08 00:29:46;;;;;;;21.67;10.68;;;;;;;14.45;66.85;102089.88;7396735;19;20015;-51
2023/06/08 00:32:13;;;;;;;19.20;9.93;;;;;;;14.35;67.40;102092.31;7395337;19;20014;-49
2023/06/08 00:34:40;;;;;;;20.30;10.23;;;;;;;14.23;67.91;102086.03;7393046;19;20499;-47
2023/06/08 00:37:07;;;;;;;16.02;9.52;;;;;;;14.31;67.72;102080.19;7397060;19;20508;-50
2023/06/08 00:39:34;;;;;;;19.75;9.35;;;;;;;14.34;67.47;102080.78;7396578;19;20023;-53
2023/06/08 00:42:02;;;;;;;17.60;9.25;;;;;;;14.35;67.32;102079.84;7396017;19;20478;-52
2023/06/08 00:44:29;;;;;;;20.08;10.15;;;;;;;14.35;67.45;102087.84;7394366;19;20039;-48
2023/06/08 00:46:57;;;;;;;19.00;9.75;;;;;;;14.50;66.98;102091.31;7396585;19;20039;-50
2023/06/08 00:49:24;;;;;;;17.77;9.82;;;;;;;14.40;66.91;102084.84;7396218;19;20054;-47
2023/06/08 00:51:52;;;;;;;20.20;10.40;;;;;;;14.29;67.38;102087.41;7395681;19;20014;-49
2023/06/08 00:54:19;;;;;;;17.17;9.93;;;;;;;14.28;67.40;102088.38;7393699;19;20361;-49
2023/06/08 00:56:48;;;;;;;16.65;9.43;;;;;;;14.26;67.54;102083.13;7396152;19;20022;-49
2023/06/08 00:59:17;;;;;;;19.30;10.30;;;;;;;14.33;67.50;102087.09;7396204;19;20106;-52
2023/06/08 01:01:44;;;;;;;17.38;10.05;;;;;;;14.35;67.38;102092.31;7392565;19;20380;-48
2023/06/08 01:04:14;;;;;;;21.48;9.30;;;;;;;14.35;67.42;102084.34;7394143;19;20018;-49
2023/06/08 01:06:46;;;;;;;18.33;9.48;;;;;;;14.43;67.25;102092.66;7393422;19;20095;-49
2023/06/08 01:09:51;;;;;;;19.48;9.35;;;;;;;14.39;67.38;102084.00;7395907;19;20074;-50
2023/06/08 01:12:21;;;;;;;19.42;9.73;;;;;;;14.31;67.67;102089.00;7393812;19;20027;-47
2023/06/08 01:15:06;;;;;;;16.90;8.77;;;;;;;14.35;67.67;102092.31;7394125;19;20018;-50
2023/06/08 01:17:42;;;;;;;16.05;8.93;;;;;;;14.40;67.28;102087.53;7395278;19;20028;-52
2023/06/08 01:20:29;;;;;;;16.45;8.60;;;;;;;14.44;67.01;102085.50;7394551;19;20014;-51
2023/06/08 01:23:20;;;;;;;16.50;8.52;;;;;;;14.32;67.59;102074.72;7395145;19;20018;-49
2023/06/08 01:25:48;;;;;;;20.38;9.35;;;;;;;14.34;67.46;102080.78;7393854;19;20098;-48
2023/06/08 01:28:16;;;;;;;16.90;8.60;;;;;;;14.34;67.51;102080.78;7394664;19;20390;-48
2023/06/08 01:30:48;;;;;;;18.40;8.65;;;;;;;14.38;67.34;102079.66;7394416;19;20046;-49
2023/06/08 01:33:21;;;;;;;14.80;8.18;;;;;;;14.32;67.73;102085.38;7394045;19;20011;-48
2023/06/08 01:36:20;;;;;;;16.17;8.35;;;;;;;14.36;67.62;102084.22;7394433;19;20027;-48
2023/06/08 01:39:09;;;;;;;17.75;7.72;;;;;;;14.26;67.84;102083.13;7394176;19;20030;-47
2023/06/08 01:41:39;;;;;;;17.20;8.05;;;;;;;14.25;67.71;102078.75;7394348;19;20382;-53
2023/06/08 01:44:09;;;;;;;15.52;7.32;;;;;;;14.31;67.70;102069.50;7392968;19;20039;-48
2023/06/08 01:46:37;;;;;;;12.38;7.28;;;;;;;14.22;67.90;102072.78;7391882;19;20018;-50
2023/06/08 01:49:05;;;;;;;15.70;7.55;;;;;;;14.32;67.52;102074.72;7394302;19;20011;-50
2023/06/08 01:51:33;;;;;;;17.27;8.00;;;;;;;14.34;67.41;102072.78;7393658;19;20018;-49
2023/06/08 01:54:06;;;;;;;15.40;7.63;;;;;;;14.19;68.07;102070.31;7392650;19;20018;-48
2023/06/08 01:56:34;;;;;;;;;;;;;;;14.13;68.31;102071.59;7394879;19;20367;-47
2023/06/08 01:59:03;;;;;;;15.90;7.72;;;;;;;14.19;68.15;102065.00;7392095;19;19978;-49
2023/06/08 02:01:30;;;;;;;18.58;8.05;;;;;;;14.19;67.81;102065.84;7392924;19;20030;-52
2023/06/08 02:03:57;;;;;;;16.15;8.07;;;;;;;14.06;68.35;102057.00;7392729;19;20025;-50
2023/06/08 02:06:24;;;;;;;17.67;8.10;;;;;;;14.10;68.09;102056.66;7390664;19;20026;-48
2023/06/08 02:08:51;;;;;;;14.27;7.18;;;;;;;14.09;68.23;102054.13;7393293;19;20047;-51
2023/06/08 02:11:19;;;;;;;15.90;7.10;;;;;;;14.17;67.94;102056.28;7392736;19;20022;-53
2023/06/08 02:13:46;;;;;;;16.33;7.35;;;;;;;14.11;67.81;102060.19;7390315;19;20014;-52
2023/06/08 02:16:13;;;;;;;17.08;7.40;;;;;;;14.14;67.73;102054.66;7392108;19;20018;-52
2023/06/08 02:18:41;;;;;;;16.60;7.55;;;;;;;14.13;68.02;102061.81;7393098;19;20525;-53
2023/06/08 02:21:09;;;;;;;15.45;7.18;;;;;;;14.14;67.74;102058.16;7392536;19;20015;-51
2023/06/08 02:23:38;;;;;;;15.30;7.15;;;;;;;14.09;67.92;102048.78;7390824;19;20025;-48
2023/06/08 02:26:07;;;;;;;16.75;7.70;;;;;;;14.04;68.29;102057.09;7392656;19;20085;-45
2023/06/08 02:28:35;;;;;;;18.98;7.90;;;;;;;14.12;67.82;102056.59;7392947;19;20026;-48
2023/06/08 02:31:03;;;;;;;18.20;8.73;;;;;;;14.04;68.09;102050.91;7391939;19;20015;-50
2023/06/08 02:33:30;;;;;;;16.40;7.80;;;;;;;13.87;68.82;102052.03;7392095;19;20018;-50
2023/06/08 02:35:58;;;;;;;15.68;7.90;;;;;;;13.79;69.17;102060.53;7393140;19;20019;-47
2023/06/08 02:38:25;;;;;;;18.08;8.35;;;;;;;13.84;68.94;102065.56;7392259;19;20554;-52
2023/06/08 02:40:52;;;;;;;15.80;8.10;;;;;;;13.92;68.73;102054.41;7390552;19;20089;-50
2023/06/08 02:43:19;;;;;;;16.85;8.02;;;;;;;13.97;68.31;102053.16;7391831;19;20046;-50
2023/06/08 02:45:47;;;;;;;15.80;7.25;;;;;;;14.03;68.26;102047.38;7391659;19;20031;-51
2023/06/08 02:48:14;;;;;;;15.90;7.60;;;;;;;14.05;68.26;102044.63;7392502;19;20014;-52
2023/06/08 02:50:41;;;;;;;18.42;8.38;;;;;;;14.08;68.13;102055.06;7391716;19;20716;-52
2023/06/08 02:53:08;;;;;;;16.58;7.57;;;;;;;14.15;67.94;102053.69;7390513;19;20487;-51
2023/06/08 02:55:36;;;;;;;19.67;8.43;;;;;;;14.08;67.89;102053.28;7391688;19;20023;-50
2023/06/08 02:58:03;;;;;;;15.32;8.75;;;;;;;14.06;68.41;102060.50;7390837;19;20018;-53
2023/06/08 03:00:31;;;;;;;19.60;8.00;;;;;;;14.12;68.13;102067.25;7390979;19;20031;-48
2023/06/08 03:03:01;;;;;;;15.23;8.27;;;;;;;13.93;68.63;102064.09;7390486;19;20022;-48
2023/06/08 03:05:29;;;;;;;15.57;8.23;;;;;;;13.98;68.62;102057.50;7390190;19;20014;-52
2023/06/08 03:07:58;;;;;;;15.73;7.65;;;;;;;14.02;68.45;102058.16;7392167;19;20051;-52
2023/06/08 03:10:26;;;;;;;16.70;8.10;;;;;;;14.02;68.38;102063.47;7391459;19;20035;-50
2023/06/08 03:12:53;;;;;;;17.10;8.38;;;;;;;13.99;68.51;102053.03;7391886;19;20056;-52
2023/06/08 03:15:23;;;;;;;20.20;8.63;;;;;;;13.96;68.89;102053.22;7389807;19;20055;-49
2023/06/08 03:17:51;;;;;;;13.20;8.80;;;;;;;13.95;68.77;102051.53;7391800;19;20054;-52
2023/06/08 03:20:19;;;;;;;17.25;8.00;;;;;;;13.96;68.53;102047.91;7391193;19;20015;-52
2023/06/08 03:22:46;;;;;;;16.17;8.20;;;;;;;13.95;68.94;102048.88;7390913;19;20113;-52
2023/06/08 03:25:16;;;;;;;14.60;8.02;;;;;;;13.97;68.57;102049.63;7385694;19;20022;-50
2023/06/08 03:27:43;;;;;;;16.70;8.18;;;;;;;14.04;68.68;102050.91;7391222;19;20014;-52
2023/06/08 03:30:11;;;;;;;18.65;8.73;;;;;;;14.03;68.50;102050.03;7390782;19;20025;-51
2023/06/08 03:32:41;;;;;;;16.35;8.93;;;;;;;14.02;68.40;102045.69;7390761;19;20015;-50
2023/06/08 03:35:09;;;;;;;19.15;8.70;;;;;;;13.87;69.12;102044.91;7389000;19;20015;-53
2023/06/08 03:37:36;;;;;;;17.15;8.55;;;;;;;13.95;68.88;102041.72;7390629;19;20011;-51
2023/06/08 03:40:06;;;;;;;18.85;8.98;;;;;;;13.94;68.73;102045.34;7390638;19;20061;-49
2023/06/08 03:42:33;;;;;;;22.13;8.88;;;;;;;13.99;68.72;102047.69;7390282;19;20359;-52
2023/06/08 03:45:00;;;;;;;18.77;8.80;;;;;;;14.00;68.61;102036.94;7387592;19;20019;-52
2023/06/08 03:47:28;;;;;;;18.63;9.32;;;;;;;13.94;68.66;102045.34;7388907;19;20018;-54
2023/06/08 03:49:55;;;;;;;16.35;8.75;;;;;;;14.00;68.72;102036.09;7390489;19;20026;-49
2023/06/08 03:52:22;;;;;;;16.38;8.23;;;;;;;14.00;68.47;102039.59;7389971;19;20035;-46
2023/06/08 03:54:49;;;;;;;18.75;9.32;;;;;;;14.02;68.38;102029.69;7387278;19;20022;-49
2023/06/08 03:57:16;;;;;;;18.15;8.20;;;;;;;14.00;68.32;102034.28;7390378;19;20011;-53
2023/06/08 03:59:44;;;;;;;14.88;9.07;;;;;;;13.96;68.56;102031.91;7390136;19;20022;-51
2023/06/08 04:02:11;;;;;;;18.60;9.00;;;;;;;13.98;68.67;102036.19;7389543;19;20022;-53
2023/06/08 04:04:39;;;;;;;21.63;9.63;;;;;;;13.95;68.59;102031.06;7389463;19;20022;-52
2023/06/08 04:07:06;;;;;;;18.38;9.40;;;;;;;13.96;68.55;102034.59;7388285;19;20100;-51
2023/06/08 04:09:33;;;;;;;22.73;9.60;;;;;;;13.79;69.10;102033.91;7390131;19;20022;-52
2023/06/08 04:12:01;;;;;;;20.80;9.32;;;;;;;13.85;69.13;102029.97;7390062;19;20039;-48
2023/06/08 04:14:28;;;;;;;17.48;8.45;;;;;;;13.91;68.91;102034.91;7388774;19;20023;-50
2023/06/08 04:16:55;;;;;;;22.67;9.98;;;;;;;13.92;68.92;102038.41;7389663;19;20014;-49
2023/06/08 04:19:23;;;;;;;16.55;8.68;;;;;;;14.00;68.86;102036.09;7389770;19;20039;-50
2023/06/08 04:21:56;;;;;;;17.50;8.85;;;;;;;13.94;69.00;102031.19;7388908;19;20015;-48
2023/06/08 04:24:24;;;;;;;19.67;9.57;;;;;;;14.06;68.90;102038.34;7388393;19;20018;-47
2023/06/08 04:26:51;;;;;;;19.67;9.43;;;;;;;14.17;68.40;102038.47;7388234;19;20158;-47
2023/06/08 04:29:18;;;;;;;18.10;8.80;;;;;;;14.17;68.28;102034.97;7389633;19;20035;-48
2023/06/08 04:31:45;;;;;;;17.45;9.27;;;;;;;14.11;68.76;102029.06;7388722;19;20038;-50
2023/06/08 04:34:13;;;;;;;18.33;9.57;;;;;;;14.12;68.98;102028.13;7388547;19;20027;-52
2023/06/08 04:36:42;;;;;;;17.88;8.80;;;;;;;14.18;68.65;102023.34;7394649;19;20026;-51
2023/06/08 04:39:09;;;;;;;23.42;9.75;;;;;;;14.15;68.64;102016.41;7396372;19;20010;-48
2023/06/08 04:41:36;;;;;;;18.90;9.35;;;;;;;14.22;68.28;102017.69;7395462;19;20021;-48
2023/06/08 04:44:05;;;;;;;25.40;8.90;;;;;;;14.19;68.45;102022.38;7395255;19;20029;-49
2023/06/08 04:46:37;;;;;;;21.27;9.50;;;;;;;14.08;68.68;102015.09;7395279;19;20019;-48
2023/06/08 04:49:05;;;;;;;18.85;9.70;;;;;;;14.16;68.55;102018.13;7396182;19;20385;-46
2023/06/08 04:51:32;;;;;;;16.60;9.07;;;;;;;14.20;68.44;102024.94;7395293;19;20025;-48
2023/06/08 04:53:59;;;;;;;17.08;9.02;;;;;;;14.28;67.86;102025.25;7395391;19;20051;-47
2023/06/08 04:56:33;;;;;;;17.05;8.00;;;;;;;14.35;67.74;102023.88;7395771;19;20018;-47
2023/06/08 04:59:00;;;;;;;15.25;8.00;;;;;;;14.28;68.12;102019.09;7396393;19;20393;-47
2023/06/08 05:01:28;;;;;;;19.00;8.55;;;;;;;14.35;67.83;102018.56;7395178;19;20033;-46
2023/06/08 05:03:55;;;;;;;16.90;8.55;;;;;;;14.41;67.59;102019.94;7393535;19;20018;-46
2023/06/08 05:06:22;;;;;;;21.52;9.23;;;;;;;14.35;67.83;102017.72;7394585;19;20071;-46
2023/06/08 05:08:49;;;;;;;19.77;9.40;;;;;;;14.33;67.86;102020.47;7393966;19;20066;-46
2023/06/08 05:11:16;;;;;;;20.25;8.90;;;;;;;14.43;67.66;102020.69;7393059;19;20113;-48
2023/06/08 05:13:44;;;;;;;19.92;9.10;;;;;;;14.43;67.59;102019.84;7395000;19;20039;-46
2023/06/08 05:16:11;;;;;;;20.25;9.98;;;;;;;14.40;67.63;102018.22;7394945;19;20531;-47
2023/06/08 05:18:38;;;;;;;16.65;9.80;;;;;;;14.43;67.48;102017.19;7395619;19;20031;-46
2023/06/08 05:21:05;;;;;;;17.63;8.55;;;;;;;14.33;67.90;102022.28;7394816;19;20030;-53
2023/06/08 05:23:32;;;;;;;18.17;8.38;;;;;;;14.43;67.85;102027.84;7392989;19;20019;-50
2023/06/08 05:25:59;;;;;;;19.75;9.57;;;;;;;14.57;67.29;102027.72;7394336;19;20025;-52
2023/06/08 05:28:27;;;;;;;16.85;8.95;;;;;;;14.60;67.00;102025.72;7394974;19;20014;-52
2023/06/08 05:30:54;;;;;;;21.20;8.88;;;;;;;14.60;67.14;102023.03;7394432;19;20022;-46
2023/06/08 05:33:21;;;;;;;18.77;8.68;;;;;;;14.50;67.45;102021.13;7394516;19;20014;-53
2023/06/08 05:35:48;;;;;;;16.25;8.68;;;;;;;14.49;67.21;102019.38;7392611;19;20048;-45
2023/06/08 05:38:16;;;;;;;16.85;8.32;;;;;;;14.53;67.35;102023.59;7387929;19;20518;-51
2023/06/08 05:40:43;;;;;;;18.65;7.85;;;;;;;14.70;66.77;102022.41;7390138;19;20034;-48
2023/06/08 05:43:10;;;;;;;17.40;8.65;;;;;;;14.78;66.62;102025.38;7392757;19;20043;-48
2023/06/08 05:45:37;;;;;;;17.70;9.88;;;;;;;14.92;66.20;102030.59;7391591;19;20014;-48
2023/06/08 05:48:05;;;;;;;17.38;8.73;;;;;;;14.92;66.11;102027.94;7389876;19;20023;-46
2023/06/08 05:50:32;;;;;;;19.23;8.98;;;;;;;14.90;66.12;102029.00;7394313;19;20065;-46
2023/06/08 05:53:00;;;;;;;17.88;10.20;;;;;;;14.86;65.71;102028.34;7392043;19;20474;-47
2023/06/08 05:55:27;;;;;;;17.25;9.15;;;;;;;14.74;66.12;102018.56;7391940;19;20022;-48
2023/06/08 05:57:54;;;;;;;19.58;9.18;;;;;;;14.67;66.57;102018.13;7394083;19;20499;-46
2023/06/08 06:00:22;;;;;;;14.00;8.00;;;;;;;14.56;66.97;102021.56;7394396;19;20033;-47
2023/06/08 06:02:49;;;;;;;18.45;8.52;;;;;;;14.65;66.63;102021.88;7393183;19;20077;-50
2023/06/08 06:05:19;;;;;;;18.90;8.85;;;;;;;14.60;66.76;102022.19;7391568;19;20018;-47
2023/06/08 06:07:46;;;;;;;20.77;10.75;;;;;;;14.67;66.51;102015.47;7391982;19;20046;-49
2023/06/08 06:10:14;;;;;;;18.80;8.75;;;;;;;14.76;66.02;102012.13;7393411;19;20022;-49
2023/06/08 06:12:41;;;;;;;18.73;8.35;;;;;;;14.78;65.98;102010.22;7393311;19;20026;-49
2023/06/08 06:15:09;;;;;;;18.55;8.50;;;;;;;14.76;66.17;102016.63;7391457;19;20483;-48
2023/06/08 06:17:36;;;;;;;18.08;8.20;;;;;;;14.71;66.38;102016.97;7392898;19;20016;-49
2023/06/08 06:20:05;;;;;;;17.58;8.25;;;;;;;14.76;66.42;102013.97;7393384;19;20474;-49
2023/06/08 06:22:33;;;;;;;15.95;8.68;;;;;;;14.81;66.07;102023.34;7390946;19;20409;-48
2023/06/08 06:25:00;;;;;;;17.75;8.65;;;;;;;14.88;65.77;102029.06;7391668;19;20023;-49
2023/06/08 06:27:28;;;;;;;20.02;9.63;;;;;;;14.82;66.53;102014.38;7391812;19;20015;-52
2023/06/08 06:29:55;;;;;;;17.08;8.20;;;;;;;14.92;65.91;102016.38;7391734;19;20051;-48
2023/06/08 06:32:22;;;;;;;18.77;8.60;;;;;;;14.91;65.82;102022.69;7391711;19;20014;-48
2023/06/08 06:34:50;;;;;;;15.93;8.18;;;;;;;14.90;66.01;102021.84;7389962;19;20259;-51
2023/06/08 06:37:17;;;;;;;15.30;8.70;;;;;;;14.92;66.06;102022.59;7392818;19;20022;-46
2023/06/08 06:39:44;;;;;;;15.25;7.70;;;;;;;15.02;66.12;102018.28;7392733;19;20018;-46
2023/06/08 06:42:11;;;;;;;19.30;7.57;;;;;;;15.03;66.19;102025.34;7392481;19;20014;-46
2023/06/08 06:44:38;;;;;;;15.18;7.68;;;;;;;15.15;66.03;102017.38;7391359;19;20018;-47
2023/06/08 06:47:06;;;;;;;15.60;7.40;;;;;;;15.19;65.79;102019.75;7391463;19;20027;-46
2023/06/08 06:49:33;;;;;;;17.85;8.05;;;;;;;15.15;65.67;102018.25;7392018;19;20600;-46
2023/06/08 06:52:00;;;;;;;17.00;8.35;;;;;;;15.16;65.85;102021.78;7391501;19;20010;-46
2023/06/08 06:54:28;;;;;;;15.50;8.13;;;;;;;15.21;65.73;102022.28;7391610;19;20018;-47
2023/06/08 06:56:55;;;;;;;16.60;7.90;;;;;;;15.30;65.92;102024.25;7392407;19;20047;-51
2023/06/08 06:59:22;;;;;;;15.25;7.45;;;;;;;15.41;65.49;102024.34;7387624;19;20494;-52
2023/06/08 07:01:49;;;;;;;17.45;7.63;;;;;;;15.45;65.61;102024.97;7391642;19;20026;-52
2023/06/08 07:04:19;;;;;;;15.07;7.22;;;;;;;15.56;65.30;102022.34;7389505;19;20022;-48
2023/06/08 07:06:47;;;;;;;16.63;7.40;;;;;;;15.60;65.33;102022.00;7391019;19;20023;-48
2023/06/08 07:09:16;;;;;;;14.70;7.22;;;;;;;15.69;65.15;102017.00;7391176;19;20042;-47
2023/06/08 07:11:43;;;;;;;15.23;7.35;;;;;;;15.73;64.87;102013.97;7390746;19;20043;-48
2023/06/08 07:14:10;;;;;;;14.88;7.63;;;;;;;15.70;65.18;102019.53;7390763;19;20018;-49
2023/06/08 07:16:37;;;;;;;16.00;6.97;;;;;;;15.70;65.20;102019.53;7392010;19;20026;-49
2023/06/08 07:19:05;;;;;;;15.90;7.10;;;;;;;15.70;65.28;102024.03;7391552;19;20018;-47
2023/06/08 07:21:32;;;;;;;16.10;6.75;;;;;;;15.76;64.98;102015.56;7390760;19;20032;-44
2023/06/08 07:24:09;;;;;;;15.95;7.10;;;;;;;15.90;64.81;102015.34;7390249;19;20022;-44
2023/06/08 07:26:56;;;;;;;14.93;6.63;;;;;;;15.94;65.06;102014.16;7390455;19;20018;-44
2023/06/08 07:29:24;;;;;;;17.55;7.63;;;;;;;15.96;64.75;102012.22;7389700;19;20034;-44
2023/06/08 07:31:51;;;;;;;16.60;6.88;;;;;;;16.02;64.44;102010.91;7390592;19;20010;-50
2023/06/08 07:34:18;;;;;;;15.30;7.00;;;;;;;16.07;64.59;102019.44;7390526;19;20022;-46
2023/06/08 07:36:45;;;;;;;15.27;6.97;;;;;;;16.13;64.58;102020.75;7390534;19;20018;-46
2023/06/08 07:39:12;;;;;;;15.85;7.53;;;;;;;16.19;64.13;102017.63;7389114;19;20032;-46
2023/06/08 07:41:39;;;;;;;14.05;7.18;;;;;;;16.22;63.94;102026.25;7388643;19;20015;-46
2023/06/08 07:44:07;;;;;;;17.30;7.45;;;;;;;16.19;64.18;102020.31;7389363;19;20015;-48
2023/06/08 07:46:34;;;;;;;19.50;6.65;;;;;;;16.19;64.29;102021.16;7390675;19;20036;-46
2023/06/08 07:49:01;;;;;;;17.52;7.05;;;;;;;16.36;64.04;102027.00;7390620;19;20019;-48
2023/06/08 07:51:28;;;;;;;14.73;6.70;;;;;;;16.46;63.97;102023.50;7389411;19;20040;-50
2023/06/08 07:53:56;;;;;;;14.63;6.88;;;;;;;16.51;63.79;102023.97;7387924;19;20023;-50
2023/06/08 07:56:23;;;;;;;16.25;6.57;;;;;;;16.52;63.78;102019.47;7390148;19;20043;-47
2023/06/08 07:58:50;;;;;;;14.32;6.82;;;;;;;16.60;63.83;102016.19;7390283;19;20021;-46
2023/06/08 08:01:17;;;;;;;12.43;6.05;;;;;;;16.68;63.58;102013.78;7389674;19;20092;-48
2023/06/08 08:03:44;;;;;;;16.38;6.53;;;;;;;16.69;63.42;102015.50;7389655;19;20039;-47
2023/06/08 08:06:13;;;;;;;15.38;6.13;;;;;;;16.70;63.11;102007.31;7390280;19;20082;-47
2023/06/08 08:08:40;;;;;;;12.52;5.80;;;;;;;16.81;62.76;101999.34;7387937;19;20053;-50
2023/06/08 08:11:08;;;;;;;13.98;6.80;;;;;;;16.85;62.61;101996.41;7392834;19;20015;-48
2023/06/08 08:13:36;;;;;;;13.50;6.00;;;;;;;16.94;62.51;101998.34;7396788;19;20082;-48
2023/06/08 08:16:03;;;;;;;12.35;6.60;;;;;;;17.04;62.46;101993.94;7397499;19;20015;-48
2023/06/08 08:18:31;;;;;;;15.52;6.43;;;;;;;17.05;62.44;102001.00;7397665;19;20100;-48
2023/06/08 08:20:58;;;;;;;14.93;6.72;;;;;;;17.17;62.31;102000.03;7396369;19;20014;-49
2023/06/08 08:23:26;;;;;;;14.20;6.05;;;;;;;17.35;62.20;101994.97;7396915;19;20030;-49
2023/06/08 08:25:53;;;;;;;16.88;6.20;;;;;;;17.50;61.55;101993.69;7396971;19;20025;-49
2023/06/08 08:28:20;;;;;;;11.27;5.93;;;;;;;17.65;60.82;101996.91;7395122;19;20031;-49
2023/06/08 08:30:47;;;;;;;15.40;6.05;;;;;;;17.69;60.80;101994.84;7396405;19;20039;-48
2023/06/08 08:33:14;;;;;;;13.85;5.55;;;;;;;17.76;61.25;101996.91;7395800;19;20462;-48
2023/06/08 08:35:44;;;;;;;12.25;5.88;;;;;;;17.80;60.59;101996.66;7396553;19;20040;-53
2023/06/08 08:38:11;;;;;;;15.23;6.65;;;;;;;17.71;60.78;101988.38;7396192;19;20100;-50
2023/06/08 08:40:41;;;;;;;17.35;7.25;;;;;;;17.70;60.60;101991.16;7393915;19;20015;-51
2023/06/08 08:43:17;;;;;;;15.05;6.35;;;;;;;17.74;61.03;101985.44;7395502;19;20042;-48
2023/06/08 08:45:45;;;;;;;15.18;5.85;;;;;;;17.71;61.04;101987.53;7396616;19;20091;-53
2023/06/08 08:48:15;;;;;;;13.95;6.20;;;;;;;17.74;61.11;101989.94;7394566;19;20014;-54
2023/06/08 08:50:49;;;;;;;13.52;5.53;;;;;;;17.81;61.15;101990.31;7393962;19;20018;-53
2023/06/08 08:53:17;;;;;;;15.80;6.00;;;;;;;17.89;60.99;101993.19;7396174;19;20021;-51
2023/06/08 08:55:48;;;;;;;14.40;6.50;;;;;;;17.89;60.97;101985.97;7396320;19;20029;-51
2023/06/08 08:58:18;;;;;;;14.75;5.85;;;;;;;17.93;60.88;101990.13;7394497;19;20042;-52
2023/06/08 09:00:48;;;;;;;15.52;5.88;;;;;;;18.03;60.67;101990.19;7394736;19;20043;-55
2023/06/08 09:03:16;;;;;;;12.90;6.18;;;;;;;18.07;60.82;101988.94;7396183;19;20018;-52
2023/06/08 09:05:44;;;;;;;11.38;5.47;;;;;;;18.14;60.56;101989.25;7395058;19;20014;-50
2023/06/08 09:08:11;;;;;;;18.42;5.47;;;;;;;18.20;60.86;101989.59;7394189;19;20042;-49
2023/06/08 09:10:39;;;;;;;12.30;4.85;;;;;;;18.25;60.44;101982.00;7394592;19;20027;-50
2023/06/08 09:13:06;;;;;;;16.80;6.10;;;;;;;18.31;60.23;101985.97;7395264;19;20015;-49
2023/06/08 09:15:37;;;;;;;16.52;5.65;;;;;;;18.35;59.91;101983.84;7394143;19;20022;-51
2023/06/08 09:18:17;;;;;;;12.80;5.50;;;;;;;18.42;59.81;101979.66;7395326;19;20022;-49
2023/06/08 09:20:45;;;;;;;13.98;5.88;;;;;;;18.44;60.02;101981.25;7394559;19;20014;-48
2023/06/08 09:23:17;;;;;;;18.38;6.15;;;;;;;18.52;59.83;101980.56;7391669;19;20565;-51
2023/06/08 09:25:46;;;;;;;12.43;5.63;;;;;;;18.53;59.88;101984.94;7393813;19;20022;-52
2023/06/08 09:28:18;;;;;;;13.80;5.28;;;;;;;18.58;59.67;101980.00;7396446;19;20014;-54
2023/06/08 09:30:48;;;;;;;14.20;5.93;;;;;;;18.64;59.44;101978.63;7394146;19;20119;-51
2023/06/08 09:33:21;;;;;;;13.40;5.78;;;;;;;18.70;59.63;101980.78;7393187;19;20022;-48
2023/06/08 09:36:04;;;;;;;15.30;6.32;;;;;;;18.74;59.63;101976.88;7396431;19;20086;-47
2023/06/08 09:38:32;;;;;;;13.43;5.83;;;;;;;18.70;59.32;101976.28;7392693;19;20022;-48
2023/06/08 09:41:21;;;;;;;14.85;5.40;;;;;;;18.78;59.39;101977.44;7392188;19;20252;-48
2023/06/08 09:43:50;;;;;;;13.95;6.13;;;;;;;18.82;59.44;101974.34;7393520;19;20070;-48
2023/06/08 09:46:34;;;;;;;20.60;8.98;;;;;;;19.00;58.76;101966.47;7393941;19;20046;-48
2023/06/08 09:49:04;;;;;;;15.15;6.03;;;;;;;19.01;58.79;101965.50;7390505;19;20033;-48
2023/06/08 09:51:39;;;;;;;16.48;5.93;;;;;;;19.03;58.64;101970.72;7393628;19;20026;-48
2023/06/08 09:54:09;;;;;;;14.95;6.32;;;;;;;19.05;58.96;101966.91;7392480;19;20489;-47
2023/06/08 09:56:38;;;;;;;13.75;6.05;;;;;;;19.08;58.83;101963.97;7392333;19;20023;-47
2023/06/08 09:59:13;;;;;;;11.88;5.47;;;;;;;19.23;58.14;101951.81;7393274;19;20081;-48
2023/06/08 10:01:43;;;;;;;14.60;5.05;;;;;;;19.27;58.53;101948.84;7393458;19;20018;-52
2023/06/08 10:04:23;;;;;;;13.43;5.78;;;;;;;19.37;58.13;101949.69;7392305;19;20060;-53
2023/06/08 10:06:57;;;;;;;16.65;5.60;;;;;;;19.38;58.31;101941.47;7393520;19;20018;-48
2023/06/08 10:09:28;;;;;;;13.40;5.50;;;;;;;19.41;58.36;101940.38;7391572;19;20018;-48
2023/06/08 10:12:00;;;;;;;16.13;5.55;;;;;;;19.42;58.28;101937.56;7393173;19;20027;-48
2023/06/08 10:14:28;;;;;;;15.10;5.38;;;;;;;19.46;58.26;101938.13;7390430;19;20099;-48
2023/06/08 10:16:56;;;;;;;16.25;5.65;;;;;;;19.51;57.64;101941.22;7393128;19;20094;-48
2023/06/08 10:19:24;;;;;;;12.35;5.90;;;;;;;19.59;57.26;101938.66;7392463;19;20025;-49
2023/06/08 10:21:52;;;;;;;12.70;5.25;;;;;;;19.67;57.16;101949.56;7391990;19;20018;-49
2023/06/08 10:24:22;;;;;;;13.43;4.70;;;;;;;19.80;56.29;101943.03;7391741;19;20019;-49
2023/06/08 10:26:50;;;;;;;12.13;4.88;;;;;;;19.74;56.78;101940.94;7392878;19;20015;-48
2023/06/08 10:29:26;;;;;;;12.05;5.07;;;;;;;19.85;56.67;101943.47;7392534;19;20090;-48
2023/06/08 10:31:54;;;;;;;12.57;5.57;;;;;;;19.86;57.15;101937.09;7391553;19;20010;-48
2023/06/08 10:34:23;;;;;;;12.40;5.32;;;;;;;19.93;56.51;101930.16;7390587;19;20152;-47
2023/06/08 10:36:50;;;;;;;14.63;5.97;;;;;;;19.99;56.73;101931.41;7392153;19;20023;-49
2023/06/08 10:39:17;;;;;;;12.93;4.70;;;;;;;20.09;56.08;101930.38;7392227;19;20027;-49
2023/06/08 10:41:56;;;;;;;10.43;5.30;;;;;;;20.21;56.01;101931.03;7389404;19;20019;-48
2023/06/08 10:44:36;;;;;;;14.55;5.28;;;;;;;20.13;55.68;101928.25;7390864;19;20039;-48
2023/06/08 10:47:05;;;;;;;13.63;6.57;;;;;;;20.14;56.12;101928.09;7393494;19;20015;-48
2023/06/08 10:49:34;;;;;;;11.60;5.43;;;;;;;20.21;55.82;101929.19;7390590;19;20023;-49
2023/06/08 10:52:05;;;;;;;11.85;4.97;;;;;;;20.29;55.32;101915.00;7391280;19;20011;-48
2023/06/08 10:54:57;;;;;;;11.23;4.97;;;;;;;20.45;55.00;101920.63;7391194;19;20022;-51
2023/06/08 10:57:34;;;;;;;13.55;5.47;;;;;;;20.48;54.65;101916.75;7392014;19;20026;-48
2023/06/08 11:00:25;;;;;;;15.25;5.60;;;;;;;20.57;54.26;101918.63;7391441;19;20100;-48
2023/06/08 11:03:00;;;;;;;12.05;4.65;;;;;;;20.55;54.46;101911.69;7391243;19;20021;-47
2023/06/08 11:05:32;;;;;;;14.77;5.45;;;;;;;20.57;54.42;101910.53;7388315;19;20527;-47
2023/06/08 11:08:00;;;;;;;14.60;5.40;;;;;;;20.63;54.29;101911.78;7390949;19;20054;-53
2023/06/08 11:10:30;;;;;;;12.68;4.80;;;;;;;20.71;54.31;101898.41;7390302;19;20025;-54
2023/06/08 11:13:07;;;;;;;11.85;4.80;;;;;;;20.80;53.44;101902.03;7391505;19;20042;-48
2023/06/08 11:15:40;;;;;;;12.02;4.93;;;;;;;20.77;53.80;101896.97;7391279;19;20014;-52
2023/06/08 11:18:11;;;;;;;11.57;5.50;;;;;;;20.84;53.51;101895.34;7389531;19;20022;-51
2023/06/08 11:20:42;;;;;;;11.57;4.60;;;;;;;20.87;53.43;101887.81;7390869;19;20039;-48
2023/06/08 11:23:13;;;;;;;11.90;4.93;;;;;;;20.89;53.22;101885.81;7391126;19;20021;-49
2023/06/08 11:25:43;;;;;;;9.57;4.15;;;;;;;20.94;53.06;101893.41;7391317;19;20035;-48